createdAt,value
2023-11-13T00:02:20.660Z,100.00
2023-11-13T00:04:47.505Z,100.00
2023-11-13T00:07:14.272Z,100.00
2023-11-13T00:09:41.001Z,100.00
2023-11-13T00:12:08.471Z,100.00
2023-11-13T00:14:35.344Z,100.00
2023-11-13T00:17:02.112Z,100.00
2023-11-13T00:19:28.798Z,100.00
2023-11-13T00:21:55.667Z,100.00
2023-11-13T00:24:22.487Z,100.00
2023-11-13T00:26:49.207Z,100.00
2023-11-13T00:29:15.836Z,100.00
2023-11-13T00:31:43.125Z,100.00
2023-11-13T00:34:09.983Z,100.00
2023-11-13T00:36:36.664Z,100.00
2023-11-13T00:39:04.631Z,100.00
2023-11-13T00:41:31.262Z,100.00
2023-11-13T00:43:57.979Z,100.00
2023-11-13T00:46:27.636Z,100.00
2023-11-13T00:48:54.636Z,100.00
2023-11-13T00:51:21.330Z,100.00
2023-11-13T00:53:48.025Z,100.00
2023-11-13T00:56:14.644Z,100.00
2023-11-13T00:58:41.308Z,100.00
2023-11-13T01:01:08.099Z,100.00
2023-11-13T01:03:35.342Z,100.00
2023-11-13T01:06:02.716Z,100.00
2023-11-13T01:08:29.918Z,100.00
2023-11-13T01:10:56.777Z,100.00
2023-11-13T01:13:23.435Z,100.00
2023-11-13T01:15:50.143Z,100.00
2023-11-13T01:18:17.172Z,100.00
2023-11-13T01:20:44.359Z,100.00
2023-11-13T01:23:11.333Z,100.00
2023-11-13T01:25:38.126Z,100.00
2023-11-13T01:28:05.030Z,100.00
2023-11-13T01:30:32.030Z,100.00
2023-11-13T01:33:00.035Z,100.00
2023-11-13T01:35:27.037Z,100.00
2023-11-13T01:37:53.805Z,100.00
2023-11-13T01:40:20.683Z,100.00
2023-11-13T01:42:47.370Z,100.00
2023-11-13T01:45:14.073Z,100.00
2023-11-13T01:47:40.915Z,100.00
2023-11-13T01:50:09.980Z,100.00
2023-11-13T01:52:37.987Z,100.00
2023-11-13T01:55:05.844Z,100.00
2023-11-13T01:57:33.959Z,100.00
2023-11-13T02:00:00.917Z,100.00
2023-11-13T02:02:27.889Z,100.00
2023-11-13T02:04:55.097Z,100.00
2023-11-13T02:07:21.995Z,100.00
2023-11-13T02:09:50.220Z,100.00
2023-11-13T02:12:16.969Z,100.00
2023-11-13T02:14:44.793Z,100.00
2023-11-13T02:17:11.440Z,100.00
2023-11-13T02:19:38.204Z,100.00
2023-11-13T02:22:05.971Z,100.00
2023-11-13T02:24:32.652Z,100.00
2023-11-13T02:26:59.468Z,100.00
2023-11-13T02:29:26.213Z,100.00
2023-11-13T02:31:54.299Z,100.00
2023-11-13T02:34:21.709Z,100.00
2023-11-13T02:36:50.256Z,100.00
2023-11-13T02:39:17.636Z,100.00
2023-11-13T02:41:45.499Z,100.00
2023-11-13T02:44:12.860Z,100.00
2023-11-13T02:46:39.897Z,100.00
2023-11-13T02:49:07.527Z,100.00
2023-11-13T02:51:34.958Z,100.00
2023-11-13T02:54:01.721Z,100.00
2023-11-13T02:56:28.464Z,100.00
2023-11-13T02:58:56.720Z,100.00
2023-11-13T03:01:23.662Z,100.00
2023-11-13T03:03:50.392Z,100.00
2023-11-13T03:06:17.073Z,100.00
2023-11-13T03:08:43.718Z,100.00
2023-11-13T03:11:13.203Z,100.00
2023-11-13T03:13:39.850Z,100.00
2023-11-13T03:16:06.895Z,100.00
2023-11-13T03:18:33.583Z,100.00
2023-11-13T03:21:00.219Z,100.00
2023-11-13T03:23:26.963Z,100.00
2023-11-13T03:25:53.689Z,100.00
2023-11-13T03:28:23.413Z,100.00
2023-11-13T03:30:50.231Z,100.00
2023-11-13T03:33:16.961Z,100.00
2023-11-13T03:35:43.626Z,100.00
2023-11-13T03:38:10.547Z,100.00
2023-11-13T03:40:37.603Z,100.00
2023-11-13T03:43:04.407Z,100.00
2023-11-13T03:45:31.065Z,100.00
2023-11-13T03:47:57.831Z,100.00
2023-11-13T03:50:24.573Z,100.00
2023-11-13T03:52:51.393Z,100.00
2023-11-13T03:55:18.110Z,100.00
2023-11-13T03:57:44.905Z,100.00
2023-11-13T04:00:12.565Z,100.00
2023-11-13T04:02:39.248Z,100.00
2023-11-13T04:05:06.220Z,100.00
2023-11-13T04:07:32.890Z,100.00
2023-11-13T04:09:59.617Z,100.00
2023-11-13T04:12:26.409Z,100.00
2023-11-13T04:14:53.072Z,100.00
2023-11-13T04:17:21.193Z,100.00
2023-11-13T04:19:48.075Z,100.00
2023-11-13T04:22:14.796Z,100.00
2023-11-13T04:24:41.465Z,100.00
2023-11-13T04:27:08.239Z,100.00
2023-11-13T04:29:35.030Z,100.00
2023-11-13T04:32:01.745Z,100.00
2023-11-13T04:34:28.487Z,100.00
2023-11-13T04:36:55.276Z,100.00
2023-11-13T04:39:21.911Z,100.00
2023-11-13T04:41:48.609Z,100.00
2023-11-13T04:44:15.311Z,100.00
2023-11-13T04:46:41.995Z,100.00
2023-11-13T04:49:09.105Z,100.00
2023-11-13T04:51:35.884Z,100.00
2023-11-13T04:54:02.505Z,100.00
2023-11-13T04:56:29.156Z,100.00
2023-11-13T04:58:56.000Z,100.00
2023-11-13T05:01:22.888Z,100.00
2023-11-13T05:03:49.592Z,100.00
2023-11-13T05:06:16.864Z,100.00
2023-11-13T05:08:44.154Z,100.00
2023-11-13T05:11:27.226Z,100.00
2023-11-13T05:13:54.238Z,100.00
2023-11-13T05:16:25.584Z,100.00
2023-11-13T05:18:53.105Z,100.00
2023-11-13T05:21:20.061Z,100.00
2023-11-13T05:23:48.843Z,100.00
2023-11-13T05:26:17.681Z,100.00
2023-11-13T05:28:44.305Z,100.00
2023-11-13T05:31:10.952Z,100.00
2023-11-13T05:33:37.750Z,100.00
2023-11-13T05:36:04.736Z,100.00
2023-11-13T05:38:31.673Z,100.00
2023-11-13T05:40:58.409Z,100.00
2023-11-13T05:43:25.472Z,100.00
2023-11-13T05:45:52.253Z,100.00
2023-11-13T05:48:19.075Z,100.00
2023-11-13T05:50:45.801Z,100.00
2023-11-13T05:53:12.448Z,100.00
2023-11-13T05:55:39.113Z,100.00
2023-11-13T05:58:05.979Z,100.00
2023-11-13T06:00:33.017Z,100.00
2023-11-13T06:02:59.714Z,100.00
2023-11-13T06:05:26.453Z,100.00
2023-11-13T06:07:53.138Z,100.00
2023-11-13T06:10:20.104Z,100.00
2023-11-13T06:12:46.829Z,100.00
2023-11-13T06:15:13.577Z,100.00
2023-11-13T06:17:41.845Z,100.00
2023-11-13T06:20:09.246Z,100.00
2023-11-13T06:22:36.161Z,100.00
2023-11-13T06:25:02.863Z,100.00
2023-11-13T06:27:29.551Z,100.00
2023-11-13T06:29:56.206Z,100.00
2023-11-13T06:32:23.122Z,100.00
2023-11-13T06:34:50.042Z,100.00
2023-11-13T06:37:16.743Z,100.00
2023-11-13T06:39:43.430Z,100.00
2023-11-13T06:42:10.149Z,100.00
2023-11-13T06:44:36.889Z,100.00
2023-11-13T06:47:03.683Z,100.00
2023-11-13T06:49:30.398Z,100.00
2023-11-13T06:51:57.376Z,100.00
2023-11-13T06:54:24.181Z,100.00
2023-11-13T06:56:51.421Z,100.00
2023-11-13T06:59:18.269Z,100.00
2023-11-13T07:01:45.037Z,100.00
2023-11-13T07:04:11.862Z,100.00
2023-11-13T07:06:40.209Z,100.00
2023-11-13T07:09:07.397Z,100.00
2023-11-13T07:11:34.085Z,100.00
2023-11-13T07:14:00.702Z,100.00
2023-11-13T07:16:27.411Z,100.00
2023-11-13T07:18:54.292Z,100.00
2023-11-13T07:21:20.936Z,100.00
2023-11-13T07:23:47.585Z,100.00
2023-11-13T07:26:14.250Z,100.00
2023-11-13T07:28:40.947Z,100.00
2023-11-13T07:31:08.293Z,100.00
2023-11-13T07:33:35.088Z,100.00
2023-11-13T07:36:01.720Z,100.00
2023-11-13T07:38:28.378Z,100.00
2023-11-13T07:40:55.124Z,100.00
2023-11-13T07:43:21.862Z,100.00
2023-11-13T07:45:50.444Z,100.00
2023-11-13T07:48:18.426Z,100.00
2023-11-13T07:50:57.132Z,100.00
2023-11-13T07:53:25.858Z,100.00
2023-11-13T07:55:52.497Z,100.00
2023-11-13T07:58:19.487Z,100.00
2023-11-13T08:00:46.218Z,100.00
2023-11-13T08:03:16.230Z,100.00
2023-11-13T08:05:43.659Z,100.00
2023-11-13T08:08:10.290Z,100.00
2023-11-13T08:10:37.131Z,100.00
2023-11-13T08:13:03.737Z,100.00
2023-11-13T08:15:30.425Z,100.00
2023-11-13T08:17:57.136Z,100.00
2023-11-13T08:20:24.022Z,100.00
2023-11-13T08:22:50.921Z,100.00
2023-11-13T08:25:17.858Z,100.00
2023-11-13T08:27:46.196Z,100.00
2023-11-13T08:30:16.369Z,100.00
2023-11-13T08:32:44.769Z,100.00
2023-11-13T08:35:12.203Z,100.00
2023-11-13T08:37:48.017Z,100.00
2023-11-13T08:40:16.843Z,100.00
2023-11-13T08:42:44.598Z,100.00
2023-11-13T08:45:15.141Z,100.00
2023-11-13T08:47:41.837Z,100.00
2023-11-13T08:50:10.198Z,100.00
2023-11-13T08:52:37.292Z,100.00
2023-11-13T08:55:04.222Z,100.00
2023-11-13T08:57:30.959Z,100.00
2023-11-13T08:59:57.637Z,100.00
2023-11-13T09:02:24.753Z,100.00
2023-11-13T09:04:51.508Z,100.00
2023-11-13T09:07:18.246Z,99.73
2023-11-13T09:09:44.913Z,100.00
2023-11-13T09:12:11.603Z,98.07
2023-11-13T09:14:38.317Z,100.00
2023-11-13T09:17:05.138Z,100.00
2023-11-13T09:19:31.853Z,100.00
2023-11-13T09:21:58.842Z,100.00
2023-11-13T09:24:25.487Z,100.00
2023-11-13T09:26:52.190Z,100.00
2023-11-13T09:29:18.999Z,100.00
2023-11-13T09:31:45.683Z,100.00
2023-11-13T09:34:12.398Z,100.00
2023-11-13T09:36:39.178Z,100.00
2023-11-13T09:39:05.918Z,94.30
2023-11-13T09:41:38.873Z,99.69
2023-11-13T09:44:07.374Z,100.00
2023-11-13T09:46:35.134Z,100.00
2023-11-13T09:49:09.895Z,100.00
2023-11-13T09:51:38.658Z,100.00
2023-11-13T09:54:05.717Z,100.00
2023-11-13T09:56:32.385Z,100.00
2023-11-13T09:59:01.052Z,100.00
2023-11-13T10:01:27.830Z,100.00
2023-11-13T10:03:54.571Z,100.00
2023-11-13T10:06:23.758Z,100.00
2023-11-13T10:08:50.421Z,99.22
2023-11-13T10:11:17.916Z,98.69
2023-11-13T10:13:44.536Z,99.63
2023-11-13T10:16:19.302Z,100.00
2023-11-13T10:18:46.980Z,100.00
2023-11-13T10:21:33.254Z,100.00
2023-11-13T10:24:15.579Z,100.00
2023-11-13T10:26:48.267Z,98.35
2023-11-13T10:29:35.116Z,100.00
2023-11-13T10:32:01.797Z,100.00
2023-11-13T10:34:44.454Z,100.00
2023-11-13T10:37:15.815Z,99.66
2023-11-13T10:39:43.584Z,100.00
2023-11-13T10:42:20.905Z,100.00
2023-11-13T10:44:47.596Z,93.56
2023-11-13T10:47:25.688Z,96.25
2023-11-13T10:49:57.424Z,98.94
2023-11-13T10:52:25.533Z,98.60
2023-11-13T10:54:54.872Z,94.31
2023-11-13T10:57:22.678Z,93.82
2023-11-13T10:59:49.642Z,92.53
2023-11-13T11:02:36.833Z,93.42
2023-11-13T11:05:05.294Z,88.40
2023-11-13T11:07:32.143Z,90.61
2023-11-13T11:09:59.414Z,93.28
2023-11-13T11:12:33.156Z,96.61
2023-11-13T11:15:23.571Z,98.26
2023-11-13T11:17:59.930Z,96.70
2023-11-13T11:20:35.729Z,93.31
2023-11-13T11:23:05.406Z,91.81
2023-11-13T11:25:49.942Z,95.11
2023-11-13T11:28:45.756Z,95.55
2023-11-13T11:31:30.979Z,96.17
2023-11-13T11:34:01.672Z,97.01
2023-11-13T11:36:35.812Z,95.38
2023-11-13T11:39:15.094Z,92.29
2023-11-13T11:41:43.712Z,93.42
2023-11-13T11:44:14.645Z,90.20
2023-11-13T11:46:48.615Z,92.94
2023-11-13T11:49:24.144Z,93.47
2023-11-13T11:51:50.834Z,91.94
2023-11-13T11:54:17.457Z,93.41
2023-11-13T11:57:00.596Z,91.95
2023-11-13T11:59:28.121Z,91.13
2023-11-13T12:01:56.266Z,96.61
2023-11-13T12:04:23.602Z,95.67
2023-11-13T12:06:52.630Z,93.65
2023-11-13T12:09:20.312Z,91.71
2023-11-13T12:11:47.351Z,92.79
2023-11-13T12:14:14.395Z,87.16
2023-11-13T12:16:41.628Z,88.28
2023-11-13T12:19:08.400Z,88.80
2023-11-13T12:21:35.263Z,91.38
2023-11-13T12:24:02.042Z,92.37
2023-11-13T12:26:28.833Z,90.55
2023-11-13T12:28:55.574Z,86.15
2023-11-13T12:31:22.862Z,87.29
2023-11-13T12:33:49.776Z,88.45
2023-11-13T12:36:16.807Z,90.77
2023-11-13T12:38:49.502Z,85.87
2023-11-13T12:41:16.268Z,86.50
2023-11-13T12:43:43.036Z,82.55
2023-11-13T12:46:09.829Z,81.78
2023-11-13T12:48:36.500Z,83.07
2023-11-13T12:51:04.765Z,82.80
2023-11-13T12:53:32.371Z,84.17
2023-11-13T12:55:59.181Z,82.46
2023-11-13T12:58:25.989Z,81.09
2023-11-13T13:00:52.675Z,85.02
2023-11-13T13:03:19.365Z,90.27
2023-11-13T13:05:47.293Z,88.92
2023-11-13T13:08:14.026Z,85.57
2023-11-13T13:10:40.869Z,85.50
2023-11-13T13:13:07.695Z,86.04
2023-11-13T13:15:34.493Z,82.33
2023-11-13T13:18:01.578Z,81.76
2023-11-13T13:20:28.257Z,80.26
2023-11-13T13:22:54.944Z,83.14
2023-11-13T13:25:24.217Z,82.33
2023-11-13T13:27:50.833Z,82.79
2023-11-13T13:30:17.515Z,85.62
2023-11-13T13:32:44.246Z,83.81
2023-11-13T13:35:11.006Z,82.05
2023-11-13T13:37:40.793Z,86.16
2023-11-13T13:40:10.042Z,87.11
2023-11-13T13:42:37.911Z,90.86
2023-11-13T13:45:04.913Z,91.68
2023-11-13T13:47:31.567Z,94.34
2023-11-13T13:49:58.242Z,93.31
2023-11-13T13:52:25.020Z,90.33
2023-11-13T13:54:51.694Z,94.07
2023-11-13T13:57:18.337Z,94.39
2023-11-13T13:59:44.950Z,95.14
2023-11-13T14:02:11.733Z,94.82
2023-11-13T14:04:38.746Z,90.90
2023-11-13T14:07:05.394Z,91.34
2023-11-13T14:09:32.337Z,91.97
2023-11-13T14:12:06.256Z,94.21
2023-11-13T14:14:36.094Z,93.29
2023-11-13T14:17:02.946Z,96.44
2023-11-13T14:19:30.472Z,96.01
2023-11-13T14:21:57.234Z,93.79
2023-11-13T14:24:23.931Z,96.62
2023-11-13T14:26:50.645Z,95.69
2023-11-13T14:29:17.332Z,98.41
2023-11-13T14:31:45.617Z,100.00
2023-11-13T14:34:12.558Z,92.22
2023-11-13T14:36:39.349Z,97.17
2023-11-13T14:39:06.133Z,100.00
2023-11-13T14:41:33.173Z,99.02
2023-11-13T14:43:59.914Z,100.00
2023-11-13T14:46:26.702Z,100.00
2023-11-13T14:48:53.676Z,100.00
2023-11-13T14:51:20.288Z,100.00
2023-11-13T14:53:47.056Z,100.00
2023-11-13T14:56:14.072Z,99.86
2023-11-13T14:58:40.754Z,100.00
2023-11-13T15:01:07.440Z,98.06
2023-11-13T15:03:34.129Z,100.00
2023-11-13T15:06:00.874Z,99.23
2023-11-13T15:08:27.822Z,100.00
2023-11-13T15:10:54.584Z,100.00
2023-11-13T15:13:21.368Z,100.00
2023-11-13T15:15:48.556Z,100.00
2023-11-13T15:18:15.518Z,100.00
2023-11-13T15:20:42.235Z,100.00
2023-11-13T15:23:20.478Z,100.00
2023-11-13T15:25:55.487Z,100.00
2023-11-13T15:28:22.183Z,100.00
2023-11-13T15:30:49.085Z,100.00
2023-11-13T15:33:15.722Z,100.00
2023-11-13T15:35:42.471Z,100.00
2023-11-13T15:38:09.606Z,100.00
2023-11-13T15:40:36.396Z,100.00
2023-11-13T15:43:03.088Z,100.00
2023-11-13T15:45:29.697Z,100.00
2023-11-13T15:47:56.432Z,100.00
2023-11-13T15:50:23.483Z,100.00
2023-11-13T15:52:50.110Z,100.00
2023-11-13T15:55:17.345Z,100.00
2023-11-13T15:57:44.016Z,100.00
2023-11-13T16:00:11.293Z,100.00
2023-11-13T16:02:38.227Z,100.00
2023-11-13T16:05:05.345Z,100.00
2023-11-13T16:07:32.113Z,100.00
2023-11-13T16:09:58.813Z,100.00
2023-11-13T16:12:25.608Z,100.00
2023-11-13T16:14:52.280Z,100.00
2023-11-13T16:17:18.966Z,100.00
2023-11-13T16:19:46.260Z,100.00
2023-11-13T16:22:13.545Z,100.00
2023-11-13T16:24:40.310Z,100.00
2023-11-13T16:27:07.005Z,100.00
2023-11-13T16:29:33.669Z,100.00
2023-11-13T16:32:01.089Z,100.00
2023-11-13T16:34:27.943Z,100.00
2023-11-13T16:36:54.640Z,100.00
2023-11-13T16:39:21.310Z,100.00
2023-11-13T16:41:47.938Z,100.00
2023-11-13T16:44:17.496Z,100.00
2023-11-13T16:46:44.485Z,100.00
2023-11-13T16:49:11.514Z,100.00
2023-11-13T16:51:38.159Z,100.00
2023-11-13T16:54:04.892Z,100.00
2023-11-13T16:56:31.550Z,100.00
2023-11-13T16:58:58.185Z,100.00
2023-11-13T17:01:24.904Z,100.00
2023-11-13T17:03:53.020Z,100.00
2023-11-13T17:06:19.665Z,100.00
2023-11-13T17:08:46.440Z,100.00
2023-11-13T17:11:13.059Z,100.00
2023-11-13T17:13:39.814Z,100.00
2023-11-13T17:16:07.092Z,100.00
2023-11-13T17:18:33.765Z,100.00
2023-11-13T17:21:00.405Z,100.00
2023-11-13T17:23:27.122Z,100.00
2023-11-13T17:25:54.087Z,100.00
2023-11-13T17:28:21.057Z,100.00
2023-11-13T17:30:47.708Z,100.00
2023-11-13T17:33:14.373Z,100.00
2023-11-13T17:35:41.403Z,100.00
2023-11-13T17:38:08.050Z,100.00
2023-11-13T17:40:34.716Z,100.00
2023-11-13T17:43:01.403Z,100.00
2023-11-13T17:45:28.029Z,100.00
2023-11-13T17:47:55.812Z,100.00
2023-11-13T17:50:23.698Z,100.00
2023-11-13T17:52:50.379Z,100.00
2023-11-13T17:55:17.010Z,100.00
2023-11-13T17:57:43.772Z,100.00
2023-11-13T18:00:11.357Z,100.00
2023-11-13T18:02:39.491Z,100.00
2023-11-13T18:05:07.581Z,100.00
2023-11-13T18:07:38.871Z,100.00
2023-11-13T18:10:06.842Z,100.00
2023-11-13T18:12:33.999Z,100.00
2023-11-13T18:15:00.861Z,100.00
2023-11-13T18:17:27.915Z,100.00
2023-11-13T18:19:56.793Z,100.00
2023-11-13T18:22:23.493Z,100.00
2023-11-13T18:24:50.199Z,100.00
2023-11-13T18:27:17.613Z,100.00
2023-11-13T18:29:44.800Z,100.00
2023-11-13T18:32:11.511Z,100.00
2023-11-13T18:34:38.392Z,100.00
2023-11-13T18:37:05.447Z,100.00
2023-11-13T18:39:33.197Z,100.00
2023-11-13T18:42:01.081Z,100.00
2023-11-13T18:44:27.732Z,100.00
2023-11-13T18:46:54.489Z,100.00
2023-11-13T18:49:21.252Z,100.00
2023-11-13T18:51:48.030Z,100.00
2023-11-13T18:54:14.652Z,100.00
2023-11-13T18:56:41.335Z,100.00
2023-11-13T18:59:08.023Z,100.00
2023-11-13T19:01:35.388Z,100.00
2023-11-13T19:04:02.318Z,100.00
2023-11-13T19:06:29.070Z,100.00
2023-11-13T19:08:55.706Z,100.00
2023-11-13T19:11:22.365Z,100.00
2023-11-13T19:13:49.040Z,100.00
2023-11-13T19:16:15.904Z,100.00
2023-11-13T19:18:42.590Z,100.00
2023-11-13T19:21:09.499Z,100.00
2023-11-13T19:23:36.529Z,100.00
2023-11-13T19:26:03.216Z,100.00
2023-11-13T19:28:29.978Z,100.00
2023-11-13T19:30:58.888Z,100.00
2023-11-13T19:33:26.376Z,100.00
2023-11-13T19:35:53.152Z,100.00
2023-11-13T19:38:19.843Z,100.00
2023-11-13T19:40:46.562Z,100.00
2023-11-13T19:43:13.310Z,100.00
2023-11-13T19:45:40.047Z,100.00
2023-11-13T19:48:06.801Z,100.00
2023-11-13T19:50:33.565Z,100.00
2023-11-13T19:53:00.573Z,100.00
2023-11-13T19:55:27.584Z,100.00
2023-11-13T19:57:54.212Z,100.00
2023-11-13T20:00:21.609Z,100.00
2023-11-13T20:02:48.371Z,100.00
2023-11-13T20:05:15.317Z,100.00
2023-11-13T20:07:42.098Z,100.00
2023-11-13T20:10:08.871Z,100.00
2023-11-13T20:12:35.484Z,100.00
2023-11-13T20:15:02.588Z,100.00
2023-11-13T20:17:29.307Z,100.00
2023-11-13T20:19:55.986Z,100.00
2023-11-13T20:22:22.665Z,100.00
2023-11-13T20:24:50.508Z,100.00
2023-11-13T20:27:17.579Z,100.00
2023-11-13T20:29:44.566Z,100.00
2023-11-13T20:32:11.490Z,100.00
2023-11-13T20:34:38.588Z,100.00
2023-11-13T20:37:05.561Z,100.00
2023-11-13T20:39:32.275Z,100.00
2023-11-13T20:41:58.958Z,100.00
2023-11-13T20:44:25.891Z,100.00
2023-11-13T20:46:53.320Z,100.00
2023-11-13T20:49:20.883Z,100.00
2023-11-13T20:51:47.632Z,100.00
2023-11-13T20:54:14.388Z,100.00
2023-11-13T20:56:41.138Z,100.00
2023-11-13T20:59:08.191Z,100.00
2023-11-13T21:01:35.319Z,100.00
2023-11-13T21:04:02.004Z,100.00
2023-11-13T21:06:28.728Z,100.00
2023-11-13T21:08:55.392Z,100.00
2023-11-13T21:11:22.166Z,100.00
2023-11-13T21:13:48.928Z,100.00
2023-11-13T21:16:15.754Z,100.00
2023-11-13T21:18:42.448Z,100.00
2023-11-13T21:21:12.807Z,100.00
2023-11-13T21:23:39.466Z,100.00
2023-11-13T21:26:06.280Z,100.00
2023-11-13T21:28:32.944Z,100.00
2023-11-13T21:30:59.586Z,100.00
2023-11-13T21:33:26.254Z,100.00
2023-11-13T21:35:52.971Z,100.00
2023-11-13T21:38:19.612Z,100.00
2023-11-13T21:40:46.281Z,100.00
2023-11-13T21:43:13.254Z,100.00
2023-11-13T21:45:42.051Z,100.00
2023-11-13T21:48:08.766Z,100.00
2023-11-13T21:50:35.590Z,100.00
2023-11-13T21:53:02.263Z,100.00
2023-11-13T21:55:30.642Z,100.00
2023-11-13T21:58:00.237Z,100.00
2023-11-13T22:00:26.880Z,100.00
2023-11-13T22:02:53.803Z,100.00
2023-11-13T22:05:20.761Z,100.00
2023-11-13T22:07:47.551Z,100.00
2023-11-13T22:10:14.490Z,100.00
2023-11-13T22:12:41.199Z,100.00
2023-11-13T22:15:09.179Z,100.00
2023-11-13T22:17:36.621Z,100.00
2023-11-13T22:20:03.574Z,100.00
2023-11-13T22:22:30.270Z,100.00
2023-11-13T22:24:56.903Z,100.00
2023-11-13T22:27:23.639Z,100.00
2023-11-13T22:29:50.347Z,100.00
2023-11-13T22:32:16.941Z,100.00
2023-11-13T22:34:43.782Z,100.00
2023-11-13T22:37:10.823Z,100.00
2023-11-13T22:39:37.505Z,100.00
2023-11-13T22:42:04.666Z,100.00
2023-11-13T22:44:32.374Z,100.00
2023-11-13T22:46:59.223Z,100.00
2023-11-13T22:49:26.002Z,100.00
2023-11-13T22:51:52.656Z,100.00
2023-11-13T22:54:19.275Z,100.00
2023-11-13T22:56:45.938Z,100.00
2023-11-13T22:59:12.753Z,100.00
2023-11-13T23:01:39.466Z,100.00
2023-11-13T23:04:06.249Z,100.00
2023-11-13T23:06:33.028Z,100.00
2023-11-13T23:08:59.777Z,100.00
2023-11-13T23:11:26.618Z,100.00
2023-11-13T23:13:53.439Z,100.00
2023-11-13T23:16:20.198Z,100.00
2023-11-13T23:18:46.822Z,100.00
2023-11-13T23:21:13.486Z,100.00
2023-11-13T23:23:40.253Z,100.00
2023-11-13T23:26:07.009Z,100.00
2023-11-13T23:28:33.634Z,100.00
2023-11-13T23:31:00.372Z,100.00
2023-11-13T23:33:27.198Z,100.00
2023-11-13T23:35:53.945Z,100.00
2023-11-13T23:38:20.607Z,100.00
2023-11-13T23:40:47.259Z,100.00
2023-11-13T23:43:14.118Z,100.00
2023-11-13T23:45:41.206Z,100.00
2023-11-13T23:48:07.980Z,100.00
2023-11-13T23:50:34.637Z,100.00
2023-11-13T23:53:01.464Z,100.00
2023-11-13T23:55:28.220Z,100.00
2023-11-13T23:57:54.881Z,100.00
